createdAt,value
2022-10-01T00:00:15.479Z,51.325748
2022-10-01T00:01:15.545Z,51.325737
2022-10-01T00:02:15.445Z,51.325729
2022-10-01T00:03:15.504Z,51.325737
2022-10-01T00:04:15.426Z,51.325741
2022-10-01T00:05:15.393Z,51.325760
2022-10-01T00:06:15.405Z,51.325748
2022-10-01T00:07:15.534Z,51.325760
2022-10-01T00:08:15.352Z,51.325726
2022-10-01T00:09:15.338Z,51.325756
2022-10-01T00:10:15.317Z,51.325779
2022-10-01T00:11:15.335Z,51.325768
2022-10-01T00:12:15.280Z,51.325775
2022-10-01T00:13:16.263Z,51.325764
2022-10-01T00:14:15.254Z,51.325752
2022-10-01T00:15:15.224Z,51.325764
2022-10-01T00:16:15.332Z,51.325756
2022-10-01T00:17:15.210Z,51.325752
2022-10-01T00:18:15.189Z,51.325752
2022-10-01T00:19:15.177Z,51.325775
2022-10-01T00:20:15.139Z,51.325783
2022-10-01T00:21:15.158Z,51.325756
2022-10-01T00:22:15.117Z,51.325737
2022-10-01T00:23:15.114Z,51.325748
2022-10-01T00:24:15.061Z,51.325726
2022-10-01T00:25:15.068Z,51.325726
2022-10-01T00:26:15.068Z,51.325714
2022-10-01T00:27:15.038Z,51.325783
2022-10-01T00:28:15.040Z,51.325813
2022-10-01T00:29:15.002Z,51.325817
2022-10-01T00:30:14.965Z,51.325859
2022-10-01T00:31:15.017Z,51.325783
2022-10-01T00:32:14.934Z,51.325718
2022-10-01T00:33:14.918Z,51.325748
2022-10-01T00:34:14.925Z,51.325741
2022-10-01T00:35:14.890Z,51.325790
2022-10-01T00:36:14.890Z,51.325737
2022-10-01T00:37:14.852Z,51.325768
2022-10-01T00:38:14.852Z,51.325787
2022-10-01T00:39:14.813Z,51.325794
2022-10-01T00:40:14.810Z,51.325783
2022-10-01T00:41:14.837Z,51.325748
2022-10-01T00:42:14.769Z,51.325737
2022-10-01T00:43:14.747Z,51.325733
2022-10-01T00:44:14.733Z,51.325718
2022-10-01T00:45:14.713Z,51.325733
2022-10-01T00:46:14.808Z,51.325741
2022-10-01T00:47:14.679Z,51.325726
2022-10-01T00:48:14.663Z,51.325737
2022-10-01T00:49:14.659Z,51.325733
2022-10-01T00:50:14.628Z,51.325737
2022-10-01T00:51:14.656Z,51.325752
2022-10-01T00:52:14.592Z,51.325756
2022-10-01T00:53:14.587Z,51.325745
2022-10-01T00:54:14.561Z,51.325745
2022-10-01T00:55:14.549Z,51.325729
2022-10-01T00:56:14.559Z,51.325733
2022-10-01T00:57:14.513Z,51.325748
2022-10-01T00:58:14.500Z,51.325752
2022-10-01T00:59:14.477Z,51.325741
2022-10-01T01:00:14.461Z,51.325748
2022-10-01T01:01:14.553Z,51.325775
2022-10-01T01:02:14.481Z,51.325809
2022-10-01T01:03:14.433Z,51.325787
2022-10-01T01:04:14.416Z,51.325760
2022-10-01T01:05:14.383Z,51.325760
2022-10-01T01:06:14.395Z,51.325844
2022-10-01T01:07:14.353Z,51.325764
2022-10-01T01:08:14.336Z,51.325848
2022-10-01T01:09:14.317Z,51.325768
2022-10-01T01:10:14.304Z,51.325756
2022-10-01T01:11:14.320Z,51.325779
2022-10-01T01:12:14.273Z,51.325783
2022-10-01T01:13:14.241Z,51.325783
2022-10-01T01:14:14.241Z,51.325817
2022-10-01T01:15:14.221Z,51.325844
2022-10-01T01:16:14.290Z,51.325806
2022-10-01T01:17:14.193Z,51.325752
2022-10-01T01:18:14.164Z,51.325783
2022-10-01T01:19:14.154Z,51.325752
2022-10-01T01:20:14.128Z,51.325748
2022-10-01T01:21:15.158Z,51.325741
2022-10-01T01:22:14.105Z,51.325722
2022-10-01T01:23:14.098Z,51.325771
2022-10-01T01:24:14.066Z,51.325760
2022-10-01T01:25:14.048Z,51.325768
2022-10-01T01:26:14.080Z,51.325768
2022-10-01T01:27:14.022Z,51.325760
2022-10-01T01:28:14.158Z,51.325745
2022-10-01T01:29:13.981Z,51.325798
2022-10-01T01:30:13.974Z,51.325893
2022-10-01T01:31:14.011Z,51.325897
2022-10-01T01:32:14.946Z,51.325817
2022-10-01T01:33:14.923Z,51.325787
2022-10-01T01:34:13.894Z,51.325775
2022-10-01T01:35:13.876Z,51.325790
2022-10-01T01:36:13.892Z,51.325699
2022-10-01T01:37:13.840Z,51.325729
2022-10-01T01:38:13.828Z,51.325809
2022-10-01T01:39:13.824Z,51.325764
2022-10-01T01:40:13.791Z,51.325760
2022-10-01T01:41:13.785Z,51.325733
2022-10-01T01:42:13.807Z,51.325726
2022-10-01T01:43:13.759Z,51.325668
2022-10-01T01:44:13.726Z,51.325710
2022-10-01T01:45:13.717Z,51.325729
2022-10-01T01:46:13.728Z,51.325748
2022-10-01T01:47:13.710Z,51.325771
2022-10-01T01:48:13.659Z,51.325768
2022-10-01T01:49:13.641Z,51.325745
2022-10-01T01:50:13.648Z,51.325733
2022-10-01T01:51:13.610Z,51.325733
2022-10-01T01:52:13.655Z,51.325726
2022-10-01T01:53:13.574Z,51.325779
2022-10-01T01:54:13.556Z,51.325760
2022-10-01T01:55:14.566Z,51.325745
2022-10-01T01:56:13.533Z,51.325779
2022-10-01T01:57:13.551Z,51.325752
2022-10-01T01:58:13.516Z,51.325752
2022-10-01T01:59:13.469Z,51.325733
2022-10-01T02:00:13.456Z,51.325764
2022-10-01T02:01:13.454Z,51.325748
2022-10-01T02:02:13.524Z,51.325790
2022-10-01T02:03:13.407Z,51.325783
2022-10-01T02:04:13.400Z,51.325787
2022-10-01T02:05:13.380Z,51.325798
2022-10-01T02:06:13.351Z,51.325787
2022-10-01T02:07:13.362Z,51.325787
2022-10-01T02:08:13.316Z,51.325748
2022-10-01T02:09:13.300Z,51.325756
2022-10-01T02:10:13.288Z,51.325787
2022-10-01T02:11:13.275Z,51.325768
2022-10-01T02:12:13.294Z,51.325802
2022-10-01T02:13:13.242Z,51.325790
2022-10-01T02:14:13.215Z,51.325741
2022-10-01T02:15:13.208Z,51.325760
2022-10-01T02:16:13.223Z,51.325726
2022-10-01T02:17:13.195Z,51.325745
2022-10-01T02:18:13.154Z,51.325722
2022-10-01T02:19:13.134Z,51.325783
2022-10-01T02:20:14.120Z,51.325752
2022-10-01T02:21:13.097Z,51.325710
2022-10-01T02:22:13.117Z,51.325729
2022-10-01T02:23:13.068Z,51.325806
2022-10-01T02:24:13.042Z,51.325764
2022-10-01T02:25:13.017Z,51.325729
2022-10-01T02:26:13.022Z,51.325718
2022-10-01T02:27:13.031Z,51.325752
2022-10-01T02:28:13.020Z,51.325722
2022-10-01T02:29:12.953Z,51.325703
2022-10-01T02:30:12.952Z,51.325699
2022-10-01T02:31:12.986Z,51.325722
2022-10-01T02:32:12.939Z,51.325687
2022-10-01T02:33:12.885Z,51.325733
2022-10-01T02:34:13.115Z,51.325737
2022-10-01T02:35:12.853Z,51.325745
2022-10-01T02:36:12.852Z,51.325726
2022-10-01T02:37:12.846Z,51.325737
2022-10-01T02:38:13.803Z,51.325760
2022-10-01T02:39:12.797Z,51.325752
2022-10-01T02:40:12.772Z,51.325764
2022-10-01T02:41:12.771Z,51.325756
2022-10-01T02:42:12.787Z,51.325722
2022-10-01T02:43:12.733Z,51.325771
2022-10-01T02:44:12.730Z,51.325783
2022-10-01T02:45:12.703Z,51.325745
2022-10-01T02:46:12.778Z,51.325752
2022-10-01T02:47:12.714Z,51.325729
2022-10-01T02:48:12.651Z,51.325737
2022-10-01T02:49:12.621Z,51.325726
2022-10-01T02:50:12.600Z,51.325737
2022-10-01T02:58:25.492Z,51.325832
2022-10-01T02:59:26.479Z,51.325825
2022-10-01T03:00:25.463Z,51.325802
2022-10-01T03:01:25.474Z,51.325764
2022-10-01T03:02:25.576Z,51.325775
2022-10-01T03:03:25.417Z,51.325756
2022-10-01T03:04:25.395Z,51.325745
2022-10-01T03:05:25.377Z,51.325718
2022-10-01T03:06:25.393Z,51.325733
2022-10-01T03:07:25.374Z,51.325741
2022-10-01T03:08:25.322Z,51.325737
2022-10-01T03:09:25.307Z,51.325752
2022-10-01T03:10:25.302Z,51.325764
2022-10-01T03:11:25.269Z,51.325748
2022-10-01T03:12:25.281Z,51.325783
2022-10-01T03:13:25.247Z,51.325764
2022-10-01T03:14:25.239Z,51.325745
2022-10-01T03:15:25.201Z,51.325748
2022-10-01T03:16:25.273Z,51.325733
2022-10-01T03:17:25.209Z,51.325748
2022-10-01T03:18:25.162Z,51.325760
2022-10-01T03:19:25.141Z,51.325741
2022-10-01T03:20:25.126Z,51.325783
2022-10-01T03:21:25.118Z,51.325745
2022-10-01T03:22:25.255Z,51.325741
2022-10-01T03:23:25.112Z,51.325779
2022-10-01T03:24:25.060Z,51.325752
2022-10-01T03:25:25.036Z,51.325741
2022-10-01T03:26:25.027Z,51.325741
2022-10-01T03:27:25.038Z,51.325806
2022-10-01T03:28:25.043Z,51.325790
2022-10-01T03:29:24.962Z,51.325718
2022-10-01T03:30:24.945Z,51.325737
2022-10-01T03:31:24.956Z,51.325748
2022-10-01T03:32:24.985Z,51.325748
2022-10-01T03:33:24.908Z,51.325764
2022-10-01T03:34:24.878Z,51.325779
2022-10-01T03:35:24.866Z,51.325745
2022-10-01T03:36:24.839Z,51.325733
2022-10-01T03:37:24.854Z,51.325737
2022-10-01T03:38:24.815Z,51.325729
2022-10-01T03:39:24.800Z,51.325726
2022-10-01T03:40:24.767Z,51.325760
2022-10-01T03:41:24.772Z,51.325722
2022-10-01T03:42:24.785Z,51.325718
2022-10-01T03:43:24.734Z,51.325726
2022-10-01T03:44:24.714Z,51.325752
2022-10-01T03:45:24.791Z,51.325775
2022-10-01T03:46:24.703Z,51.325756
2022-10-01T03:47:24.706Z,51.325741
2022-10-01T03:48:24.654Z,51.325729
2022-10-01T03:49:24.628Z,51.325752
2022-10-01T03:50:24.622Z,51.325752
2022-10-01T03:51:24.595Z,51.325764
2022-10-01T03:52:25.450Z,51.325768
2022-10-01T03:53:24.562Z,51.325764
2022-10-01T03:54:24.546Z,51.325745
2022-10-01T03:55:24.527Z,51.325756
2022-10-01T03:56:24.565Z,51.325764
2022-10-01T03:57:24.512Z,51.325771
2022-10-01T03:58:24.481Z,51.325706
2022-10-01T03:59:24.472Z,51.325745
2022-10-01T04:00:24.443Z,51.325737
2022-10-01T04:01:24.484Z,51.325752
2022-10-01T04:02:24.559Z,51.325722
2022-10-01T04:03:24.397Z,51.325741
2022-10-01T04:04:24.385Z,51.325729
2022-10-01T04:05:24.373Z,51.325748
2022-10-01T04:06:24.346Z,51.325771
2022-10-01T04:07:24.385Z,51.325790
2022-10-01T04:08:24.586Z,51.325794
2022-10-01T04:09:25.291Z,51.325806
2022-10-01T04:10:24.269Z,51.325756
2022-10-01T04:11:24.251Z,51.325741
2022-10-01T04:12:24.275Z,51.325741
2022-10-01T04:13:24.223Z,51.325768
2022-10-01T04:14:24.239Z,51.325760
2022-10-01T04:15:24.189Z,51.325737
2022-10-01T04:16:24.209Z,51.325737
2022-10-01T04:17:24.204Z,51.325733
2022-10-01T04:18:24.154Z,51.325657
2022-10-01T04:19:24.142Z,51.325695
2022-10-01T04:20:24.151Z,51.325741
2022-10-01T04:21:24.096Z,51.325748
2022-10-01T04:22:24.208Z,51.325733
2022-10-01T04:23:24.074Z,51.325760
2022-10-01T04:24:24.034Z,51.325729
2022-10-01T04:25:24.030Z,51.325745
2022-10-01T04:26:24.012Z,51.325768
2022-10-01T04:27:24.024Z,51.325748
2022-10-01T04:28:24.019Z,51.325760
2022-10-01T04:29:24.063Z,51.325783
2022-10-01T04:30:23.969Z,51.325779
2022-10-01T04:31:23.995Z,51.325752
2022-10-01T04:32:23.973Z,51.325760
2022-10-01T04:33:23.894Z,51.325768
2022-10-01T04:34:23.873Z,51.325768
2022-10-01T04:35:23.863Z,51.325779
2022-10-01T04:36:23.858Z,51.325779
2022-10-01T04:37:23.874Z,51.325764
2022-10-01T04:38:23.813Z,51.325787
2022-10-01T04:39:23.815Z,51.325779
2022-10-01T04:40:23.775Z,51.325756
2022-10-01T04:41:23.757Z,51.325748
2022-10-01T04:42:23.811Z,51.325752
2022-10-01T04:43:23.746Z,51.325779
2022-10-01T04:44:23.715Z,51.325802
2022-10-01T04:45:23.690Z,51.325809
2022-10-01T04:46:23.741Z,51.325802
2022-10-01T04:47:23.688Z,51.325809
2022-10-01T04:48:23.641Z,51.325821
2022-10-01T04:49:23.641Z,51.325851
2022-10-01T04:50:23.617Z,51.325836
2022-10-01T04:51:23.652Z,51.325829
2022-10-01T04:52:23.614Z,51.325844
2022-10-01T04:53:23.588Z,51.325775
2022-10-01T04:54:23.539Z,51.325829
2022-10-01T04:55:23.533Z,51.325848
2022-10-01T04:56:23.527Z,51.325844
2022-10-01T04:57:23.535Z,51.325779
2022-10-01T04:58:23.473Z,51.325741
2022-10-01T04:59:23.462Z,51.325726
2022-10-01T05:00:23.477Z,51.325745
2022-10-01T05:01:23.498Z,51.325714
2022-10-01T05:02:23.536Z,51.325714
2022-10-01T05:03:23.385Z,51.325790
2022-10-01T05:04:23.386Z,51.325760
2022-10-01T05:05:23.355Z,51.325764
2022-10-01T05:06:23.377Z,51.325825
2022-10-01T05:07:23.358Z,51.325836
2022-10-01T05:08:23.291Z,51.325779
2022-10-01T05:09:23.285Z,51.325798
2022-10-01T05:10:23.280Z,51.325768
2022-10-01T05:11:23.250Z,51.325729
2022-10-01T05:12:24.652Z,51.325798
2022-10-01T05:13:24.219Z,51.325779
2022-10-01T05:14:23.209Z,51.325829
2022-10-01T05:15:23.180Z,51.325829
2022-10-01T05:16:23.232Z,51.325790
2022-10-01T05:17:23.232Z,51.325756
2022-10-01T05:18:23.140Z,51.325760
2022-10-01T05:19:27.891Z,51.325783
2022-10-01T05:20:24.109Z,51.325825
2022-10-01T05:21:23.100Z,51.325855
2022-10-01T05:22:23.110Z,51.325890
2022-10-01T05:23:23.060Z,51.325874
2022-10-01T05:24:23.042Z,51.325886
2022-10-01T05:25:23.026Z,51.325867
2022-10-01T05:26:23.008Z,51.325851
2022-10-01T05:27:23.046Z,51.325832
2022-10-01T05:28:23.013Z,51.325832
2022-10-01T05:29:22.949Z,51.325813
2022-10-01T05:30:22.937Z,51.325809
2022-10-01T05:31:22.998Z,51.325817
2022-10-01T05:32:23.035Z,51.325817
2022-10-01T05:33:22.882Z,51.325813
2022-10-01T05:34:22.870Z,51.325844
2022-10-01T05:35:22.854Z,51.325809
2022-10-01T05:36:22.834Z,51.325802
2022-10-01T05:37:22.846Z,51.325813
2022-10-01T05:38:22.848Z,51.325798
2022-10-01T05:39:22.782Z,51.325783
2022-10-01T05:40:22.769Z,51.325813
2022-10-01T05:41:22.741Z,51.325844
2022-10-01T05:42:22.802Z,51.325813
2022-10-01T05:43:22.709Z,51.325790
2022-10-01T05:44:22.702Z,51.325783
2022-10-01T05:45:22.775Z,51.325806
2022-10-01T05:46:22.657Z,51.325771
2022-10-01T05:47:22.668Z,51.325756
2022-10-01T05:48:22.620Z,51.325783
2022-10-01T05:49:22.598Z,51.325809
2022-10-01T05:50:22.586Z,51.325802
2022-10-01T05:51:22.580Z,51.325809
2022-10-01T05:52:22.611Z,51.325790
2022-10-01T05:53:22.548Z,51.325783
2022-10-01T05:54:22.541Z,51.325756
2022-10-01T05:55:22.533Z,51.325802
2022-10-01T05:56:22.499Z,51.325794
2022-10-01T05:57:22.576Z,51.325771
2022-10-01T05:58:22.462Z,51.325783
2022-10-01T05:59:22.439Z,51.325790
2022-10-01T06:00:22.418Z,51.325790
2022-10-01T06:01:22.411Z,51.325783
2022-10-01T06:02:22.549Z,51.325779
2022-10-01T06:03:22.436Z,51.325783
2022-10-01T06:04:22.367Z,51.325779
2022-10-01T06:05:22.377Z,51.325787
2022-10-01T06:06:22.335Z,51.325794
2022-10-01T06:07:22.351Z,51.325779
2022-10-01T06:08:22.347Z,51.325794
2022-10-01T06:09:22.263Z,51.325806
2022-10-01T06:10:22.264Z,51.325817
2022-10-01T06:11:22.239Z,51.325752
2022-10-01T06:12:22.265Z,51.325729
2022-10-01T06:13:22.192Z,51.325703
2022-10-01T06:14:22.196Z,51.325733
2022-10-01T06:15:22.181Z,51.325806
2022-10-01T06:16:22.190Z,51.325710
2022-10-01T06:17:22.169Z,51.325737
2022-10-01T06:18:22.134Z,51.325748
2022-10-01T06:19:22.094Z,51.325779
2022-10-01T06:20:22.077Z,51.325768
2022-10-01T06:21:22.094Z,51.325787
2022-10-01T06:22:22.105Z,51.325783
2022-10-01T06:23:22.029Z,51.325798
2022-10-01T06:24:21.999Z,51.325665
2022-10-01T06:25:22.012Z,51.325706
2022-10-01T06:26:21.965Z,51.325775
2022-10-01T06:27:21.972Z,51.325779
2022-10-01T06:28:22.051Z,51.325775
2022-10-01T06:29:21.928Z,51.325775
2022-10-01T06:30:21.933Z,51.325821
2022-10-01T06:31:21.949Z,51.325775
2022-10-01T06:32:21.902Z,51.325752
2022-10-01T06:33:21.850Z,51.325733
2022-10-01T06:34:21.837Z,51.325745
2022-10-01T06:35:21.829Z,51.325737
2022-10-01T06:36:21.797Z,51.325745
2022-10-01T06:37:21.815Z,51.325768
2022-10-01T06:38:21.756Z,51.325771
2022-10-01T06:39:21.765Z,51.325760
2022-10-01T06:40:21.719Z,51.325760
2022-10-01T06:41:21.714Z,51.325764
2022-10-01T06:42:21.727Z,51.325764
2022-10-01T06:43:21.687Z,51.325764
2022-10-01T06:44:21.683Z,51.325760
2022-10-01T06:45:21.648Z,51.325741
2022-10-01T06:46:21.705Z,51.325733
2022-10-01T06:47:21.670Z,51.325741
2022-10-01T06:48:21.615Z,51.325745
2022-10-01T06:49:21.600Z,51.325756
2022-10-01T06:50:21.585Z,51.325756
2022-10-01T06:51:21.570Z,51.325760
2022-10-01T06:52:21.582Z,51.325748
2022-10-01T06:53:21.638Z,51.325745
2022-10-01T06:54:21.523Z,51.325726
2022-10-01T06:55:21.490Z,51.325729
2022-10-01T06:56:21.460Z,51.325722
2022-10-01T06:57:21.473Z,51.325733
2022-10-01T06:58:21.456Z,51.325748
2022-10-01T06:59:21.425Z,51.325729
2022-10-01T07:00:21.407Z,51.325745
2022-10-01T07:01:21.461Z,51.325733
2022-10-01T07:02:21.485Z,51.325699
2022-10-01T07:03:21.364Z,51.325706
2022-10-01T07:04:21.339Z,51.325718
2022-10-01T07:05:21.343Z,51.325737
2022-10-01T07:06:21.315Z,51.325748
2022-10-01T07:07:21.330Z,51.325737
2022-10-01T07:08:21.271Z,51.325741
2022-10-01T07:09:21.245Z,51.325771
2022-10-01T07:10:21.253Z,51.325741
2022-10-01T07:11:21.224Z,51.325691
2022-10-01T07:12:21.222Z,51.325699
2022-10-01T07:13:21.199Z,51.325691
2022-10-01T07:14:21.200Z,51.325714
2022-10-01T07:15:21.145Z,51.325626
2022-10-01T07:16:21.184Z,51.325726
2022-10-01T07:17:21.138Z,51.325718
2022-10-01T07:18:21.094Z,51.325764
2022-10-01T07:19:21.065Z,51.325745
2022-10-01T07:20:21.063Z,51.325695
2022-10-01T07:21:21.045Z,51.325687
2022-10-01T07:22:21.061Z,51.325710
2022-10-01T07:23:21.015Z,51.325733
2022-10-01T07:24:20.988Z,51.325726
2022-10-01T07:25:20.984Z,51.325714
2022-10-01T07:26:20.945Z,51.325687
2022-10-01T07:27:20.992Z,51.325676
2022-10-01T07:28:20.943Z,51.325680
2022-10-01T07:29:20.910Z,51.325611
2022-10-01T07:30:21.887Z,51.325676
2022-10-01T07:31:20.911Z,51.325665
2022-10-01T07:32:20.888Z,51.325703
2022-10-01T07:33:20.891Z,51.325672
2022-10-01T07:34:20.827Z,51.325733
2022-10-01T07:35:20.800Z,51.325760
2022-10-01T07:36:20.803Z,51.325676
2022-10-01T07:37:20.799Z,51.325733
2022-10-01T07:38:20.749Z,51.325722
2022-10-01T07:39:20.730Z,51.325718
2022-10-01T07:40:20.718Z,51.325714
2022-10-01T07:41:20.698Z,51.325699
2022-10-01T07:42:20.754Z,51.325680
2022-10-01T07:43:20.649Z,51.325710
2022-10-01T07:44:20.650Z,51.325733
2022-10-01T07:45:20.621Z,51.325703
2022-10-01T07:46:20.675Z,51.325710
2022-10-01T07:47:20.668Z,51.325714
2022-10-01T07:48:20.578Z,51.325710
2022-10-01T07:49:20.544Z,51.325699
2022-10-01T07:50:20.540Z,51.325710
2022-10-01T07:51:20.504Z,51.325706
2022-10-01T07:52:20.523Z,51.325699
2022-10-01T07:53:20.486Z,51.325691
2022-10-01T07:54:20.471Z,51.325699
2022-10-01T07:55:20.482Z,51.325718
2022-10-01T07:56:20.457Z,51.325722
2022-10-01T07:57:20.450Z,51.325722
2022-10-01T07:58:20.393Z,51.325718
2022-10-01T07:59:20.396Z,51.325741
2022-10-01T08:00:20.376Z,51.325768
2022-10-01T08:01:20.397Z,51.325756
2022-10-01T08:02:20.407Z,51.325775
2022-10-01T08:03:20.351Z,51.325787
2022-10-01T08:04:20.307Z,51.325783
2022-10-01T08:05:20.318Z,51.325722
2022-10-01T08:06:24.681Z,51.325714
2022-10-01T08:07:22.271Z,51.325710
2022-10-01T08:08:21.233Z,51.325676
2022-10-01T08:09:20.207Z,51.325680
2022-10-01T08:10:20.202Z,51.325729
2022-10-01T08:11:20.195Z,51.325783
2022-10-01T08:12:20.192Z,51.325710
2022-10-01T08:13:20.151Z,51.325722
2022-10-01T08:14:20.163Z,51.325760
2022-10-01T08:15:20.125Z,51.325748
2022-10-01T08:16:20.144Z,51.325706
2022-10-01T08:17:20.110Z,51.325722
2022-10-01T08:18:20.093Z,51.325756
2022-10-01T08:19:20.041Z,51.325748
2022-10-01T08:20:20.044Z,51.325741
2022-10-01T08:21:20.043Z,51.325741
2022-10-01T08:22:20.056Z,51.325752
2022-10-01T08:23:20.005Z,51.325748
2022-10-01T08:24:19.967Z,51.325764
2022-10-01T08:25:19.957Z,51.325752
2022-10-01T08:26:19.955Z,51.325741
2022-10-01T08:27:19.946Z,51.325710
2022-10-01T08:28:19.953Z,51.325718
2022-10-01T08:29:19.890Z,51.325729
2022-10-01T08:30:19.858Z,51.325737
2022-10-01T08:31:19.886Z,51.325764
2022-10-01T08:32:19.818Z,51.325714
2022-10-01T08:33:19.826Z,51.325710
2022-10-01T08:34:19.802Z,51.325714
2022-10-01T08:35:19.793Z,51.325771
2022-10-01T08:36:19.751Z,51.325768
2022-10-01T08:37:19.745Z,51.325756
2022-10-01T08:38:19.745Z,51.325741
2022-10-01T08:39:19.710Z,51.325722
2022-10-01T08:40:19.677Z,51.325737
2022-10-01T08:41:23.116Z,51.325748
2022-10-01T08:42:20.656Z,51.325748
2022-10-01T08:43:19.731Z,51.325737
2022-10-01T08:44:19.626Z,51.325714
2022-10-01T08:45:19.609Z,51.325737
2022-10-01T08:46:19.674Z,51.325729
2022-10-01T08:47:19.569Z,51.325722
2022-10-01T08:48:19.579Z,51.325752
2022-10-01T08:49:19.538Z,51.325760
2022-10-01T08:50:19.522Z,51.325748
2022-10-01T08:51:19.503Z,51.325745
2022-10-01T08:52:19.484Z,51.325737
2022-10-01T08:53:19.494Z,51.325729
2022-10-01T08:54:19.452Z,51.325741
2022-10-01T08:55:19.455Z,51.325737
2022-10-01T08:56:19.422Z,51.325714
2022-10-01T08:57:19.387Z,51.325714
2022-10-01T08:58:19.417Z,51.325737
2022-10-01T08:59:20.030Z,51.325718
2022-10-01T09:00:19.349Z,51.325726
2022-10-01T09:01:19.359Z,51.325764
2022-10-01T09:02:19.306Z,51.325729
2022-10-01T09:03:19.322Z,51.325668
2022-10-01T09:04:19.298Z,51.325699
2022-10-01T09:05:19.264Z,51.325718
2022-10-01T09:06:19.259Z,51.325695
2022-10-01T09:07:19.226Z,51.325741
2022-10-01T09:08:19.237Z,51.325672
2022-10-01T09:09:19.189Z,51.325741
2022-10-01T09:10:19.224Z,51.325718
2022-10-01T09:11:19.176Z,51.325737
2022-10-01T09:12:19.126Z,51.325699
2022-10-01T09:13:19.141Z,51.325706
2022-10-01T09:14:19.180Z,51.325661
2022-10-01T09:15:19.083Z,51.325687
2022-10-01T09:16:19.126Z,51.325684
2022-10-01T09:17:19.068Z,51.325703
2022-10-01T09:18:19.059Z,51.325691
2022-10-01T09:19:19.025Z,51.325680
2022-10-01T09:20:19.069Z,51.325691
2022-10-01T09:21:18.976Z,51.325756
2022-10-01T09:22:18.966Z,51.325783
2022-10-01T09:23:18.992Z,51.325752
2022-10-01T09:24:18.938Z,51.325729
2022-10-01T09:25:18.935Z,51.325798
2022-10-01T09:26:23.554Z,51.325729
2022-10-01T09:27:20.898Z,51.325722
2022-10-01T09:28:18.947Z,51.325710
2022-10-01T09:29:18.866Z,51.325722
2022-10-01T09:30:18.839Z,51.325722
2022-10-01T09:31:18.853Z,51.325737
2022-10-01T09:32:19.863Z,51.325706
2022-10-01T09:33:18.783Z,51.325733
2022-10-01T09:34:18.770Z,51.325741
2022-10-01T09:35:18.750Z,51.325760
2022-10-01T09:36:18.720Z,51.325733
2022-10-01T09:37:19.752Z,51.325733
2022-10-01T09:38:18.688Z,51.325710
2022-10-01T09:39:18.672Z,51.325726
2022-10-01T09:40:19.669Z,51.325718
2022-10-01T09:41:18.648Z,51.325737
2022-10-01T09:42:18.652Z,51.325752
2022-10-01T09:43:18.623Z,51.325768
2022-10-01T09:44:18.965Z,51.325752
2022-10-01T09:45:19.585Z,51.325760
2022-10-01T09:46:18.568Z,51.325729
2022-10-01T09:47:18.538Z,51.325748
2022-10-01T09:48:18.553Z,51.325764
2022-10-01T09:49:18.515Z,51.325802
2022-10-01T09:50:18.485Z,51.325703
2022-10-01T09:51:18.457Z,51.325680
2022-10-01T09:52:18.461Z,51.325703
2022-10-01T09:53:18.467Z,51.325718
2022-10-01T09:54:19.417Z,51.325672
2022-10-01T09:55:18.447Z,51.325703
2022-10-01T09:56:18.389Z,51.325672
2022-10-01T09:57:19.416Z,51.325706
2022-10-01T09:58:18.355Z,51.325680
2022-10-01T09:59:18.332Z,51.325672
2022-10-01T10:00:18.318Z,51.325645
2022-10-01T10:01:18.293Z,51.325687
2022-10-01T10:02:18.400Z,51.325760
2022-10-01T10:03:18.361Z,51.325729
2022-10-01T10:04:20.134Z,51.325733
2022-10-01T10:05:19.240Z,51.325649
2022-10-01T10:06:18.226Z,51.325695
2022-10-01T10:07:18.225Z,51.325714
2022-10-01T10:08:18.189Z,51.325699
2022-10-01T10:09:18.170Z,51.325733
2022-10-01T10:10:21.003Z,51.325726
2022-10-01T10:11:19.144Z,51.325653
2022-10-01T10:12:18.156Z,51.325676
2022-10-01T10:13:18.105Z,51.325718
2022-10-01T10:14:18.072Z,51.325695
2022-10-01T10:15:18.106Z,51.325680
2022-10-01T10:16:18.094Z,51.325695
2022-10-01T10:17:18.087Z,51.325718
2022-10-01T10:18:22.994Z,51.325676
2022-10-01T10:19:19.009Z,51.325729
2022-10-01T10:20:17.988Z,51.325722
2022-10-01T10:21:17.973Z,51.325748
2022-10-01T10:22:17.986Z,51.325748
2022-10-01T10:23:17.923Z,51.325745
2022-10-01T10:24:17.974Z,51.325748
2022-10-01T10:25:17.895Z,51.325775
2022-10-01T10:26:17.901Z,51.325760
2022-10-01T10:27:17.906Z,51.325764
2022-10-01T10:28:17.893Z,51.325768
2022-10-01T10:29:17.847Z,51.325783
2022-10-01T10:30:17.829Z,51.325718
2022-10-01T10:31:17.833Z,51.325741
2022-10-01T10:32:17.809Z,51.325764
2022-10-01T10:33:17.824Z,51.325737
2022-10-01T10:34:17.755Z,51.325684
2022-10-01T10:35:17.730Z,51.325714
2022-10-01T10:36:17.703Z,51.325703
2022-10-01T10:37:17.712Z,51.325714
2022-10-01T10:38:17.675Z,51.325706
2022-10-01T10:39:17.673Z,51.325768
2022-10-01T10:40:17.642Z,51.325714
2022-10-01T10:41:17.630Z,51.325745
2022-10-01T10:42:17.636Z,51.325748
2022-10-01T10:43:17.606Z,51.325714
2022-10-01T10:44:17.589Z,51.325729
2022-10-01T10:45:17.587Z,51.325714
2022-10-01T10:46:17.648Z,51.325706
2022-10-01T10:47:17.538Z,51.325779
2022-10-01T10:48:17.525Z,51.325771
2022-10-01T10:49:17.495Z,51.325768
2022-10-01T10:50:17.471Z,51.325741
2022-10-01T10:51:17.483Z,51.325722
2022-10-01T10:52:17.445Z,51.325760
2022-10-01T10:53:17.458Z,51.325779
2022-10-01T10:54:17.404Z,51.325775
2022-10-01T10:55:17.366Z,51.325764
2022-10-01T10:56:18.376Z,51.325737
2022-10-01T10:57:17.343Z,51.325733
2022-10-01T10:58:17.350Z,51.325775
2022-10-01T10:59:17.309Z,51.325802
2022-10-01T11:00:17.307Z,51.325733
2022-10-01T11:01:17.320Z,51.325733
2022-10-01T11:02:17.306Z,51.325752
2022-10-01T11:03:17.303Z,51.325756
2022-10-01T11:04:17.219Z,51.325729
2022-10-01T11:05:17.216Z,51.325665
2022-10-01T11:06:17.192Z,51.325661
2022-10-01T11:07:17.184Z,51.325623
2022-10-01T11:08:18.019Z,51.325676
2022-10-01T11:09:18.137Z,51.325745
2022-10-01T11:10:17.142Z,51.325737
2022-10-01T11:11:17.116Z,51.325771
2022-10-01T11:12:17.143Z,51.325844
2022-10-01T11:13:17.068Z,51.325783
2022-10-01T11:14:21.393Z,51.325748
2022-10-01T11:15:19.040Z,51.325855
2022-10-01T11:16:17.092Z,51.325859
2022-10-01T11:17:17.024Z,51.325813
2022-10-01T11:18:17.024Z,51.325752
2022-10-01T11:19:16.965Z,51.325783
2022-10-01T11:20:20.619Z,51.325752
2022-10-01T11:21:17.919Z,51.325779
2022-10-01T11:22:16.946Z,51.325825
2022-10-01T11:23:16.890Z,51.325760
2022-10-01T11:24:16.896Z,51.325768
2022-10-01T11:25:16.867Z,51.325771
2022-10-01T11:26:16.852Z,51.325768
2022-10-01T11:27:16.827Z,51.325836
2022-10-01T11:28:16.873Z,51.325871
2022-10-01T11:29:16.802Z,51.325836
2022-10-01T11:30:16.780Z,51.325741
2022-10-01T11:31:16.823Z,51.325836